PWSweather.com
Personal Weather Stations
Station Observations
OBERT
Bodensee Hinterland, OberteuringenDE

Bodensee HinterlandOberteuringenDE

Lat: 47.714675, Lon: 9.44447

Elevation: 1427

Station Type: Wunder Weather Station

High Low Average
Temperature 72.8°F22.7°F 42.6°F5.9°F 55.7°F13.2°F
Dew Point 61.9°F16.6°F -0.1°F-17.8°F 52.2°F11.2°F
Winds 5.0 mph -8.0 mph - Calm Calm 1.3 mph 2.1 mph
Wind Gusts 8.7 mph14.0 mph -- 2.8 mph4.5 mph
Humidity 100% -5% 91%
Pressure 29.84 in1010.50 in 29.73 in1006.80 in -
Precipitation 0.00 in0.00 in - -
Hour Temp Dew Point Humidity Winds Wind Gusts Pressure Precip Precip Rate Daily Precip Total
12:19 AM 50.1°F10.1°C 50.1°F10.1°C 100% 1.3 mph SW2.1 kmh SW 4.3 mph6.9 kmh 29.83 in1010.2 mb 0.00 in0.0 mm 0.00 in0.0 mm 0.00 in0.0 mm
12:49 AM 49.6°F9.8°C 49.6°F9.8°C 100% 3.1 mph SSW5.0 kmh SSW 5.0 mph8.0 kmh 29.82 in1009.8 mb 0.00 in0.0 mm 0.00 in0.0 mm 0.00 in0.0 mm
01:19 AM 49.2°F9.6°C 49.2°F9.6°C 100% 3.1 mph SW5.0 kmh SW 4.6 mph7.4 kmh 29.81 in1009.5 mb 0.00 in0.0 mm 0.00 in0.0 mm 0.00 in0.0 mm
01:49 AM 48.7°F9.3°C 48.7°F9.3°C 100% 2.7 mph S4.3 kmh S 4.3 mph6.9 kmh 29.81 in1009.5 mb 0.00 in0.0 mm 0.00 in0.0 mm 0.00 in0.0 mm
02:19 AM 49.2°F9.6°C 49.2°F9.6°C 100% 1.5 mph SW2.4 kmh SW 5.6 mph9.0 kmh 29.80 in1009.1 mb 0.00 in0.0 mm 0.00 in0.0 mm 0.00 in0.0 mm
02:49 AM 49.2°F9.6°C 49.2°F9.6°C 100% 5.0 mph S8.0 kmh S 8.1 mph13.0 kmh 29.80 in1009.1 mb 0.00 in0.0 mm 0.00 in0.0 mm 0.00 in0.0 mm
03:19 AM 49.1°F9.5°C 49.1°F9.5°C 100% 5.0 mph SSW8.0 kmh SSW 8.7 mph14.0 kmh 29.79 in1008.8 mb 0.00 in0.0 mm 0.00 in0.0 mm 0.00 in0.0 mm
03:49 AM 48.3°F9.1°C 48.3°F9.1°C 100% 2.1 mph SW3.4 kmh SW 6.2 mph10.0 kmh 29.79 in1008.8 mb 0.00 in0.0 mm 0.00 in0.0 mm 0.00 in0.0 mm
04:19 AM 48.2°F9.0°C 48.2°F9.0°C 100% 3.4 mph WSW5.5 kmh WSW 5.9 mph9.5 kmh 29.78 in1008.5 mb 0.00 in0.0 mm 0.00 in0.0 mm 0.00 in0.0 mm
04:49 AM 47.8°F8.8°C 47.8°F8.8°C 100% 2.2 mph WSW3.5 kmh WSW 5.3 mph8.5 kmh 29.78 in1008.5 mb 0.00 in0.0 mm 0.00 in0.0 mm 0.00 in0.0 mm
05:19 AM 46.7°F8.2°C 46.7°F8.2°C 100% Calm Calm -- 29.79 in1008.8 mb 0.00 in0.0 mm 0.00 in0.0 mm 0.00 in0.0 mm
05:49 AM 44.7°F7.1°C 44.7°F7.1°C 100% Calm Calm -- 29.79 in1008.8 mb 0.00 in0.0 mm 0.00 in0.0 mm 0.00 in0.0 mm
06:19 AM 43.3°F6.3°C 43.3°F6.3°C 100% Calm Calm -- 29.79 in1008.8 mb 0.00 in0.0 mm 0.00 in0.0 mm 0.00 in0.0 mm
06:49 AM 42.6°F5.9°C 42.6°F5.9°C 100% Calm Calm -- 29.79 in1008.8 mb 0.00 in0.0 mm 0.00 in0.0 mm 0.00 in0.0 mm
07:19 AM 43.1°F6.2°C 43.1°F6.2°C 100% Calm Calm -- 29.80 in1009.1 mb 0.00 in0.0 mm 0.00 in0.0 mm 0.00 in0.0 mm
07:49 AM 44.7°F7.1°C 44.7°F7.1°C 100% Calm Calm -- 29.80 in1009.1 mb 0.00 in0.0 mm 0.00 in0.0 mm 0.00 in0.0 mm
08:19 AM 49.8°F9.9°C 49.8°F9.9°C 100% Calm Calm -- 29.81 in1009.5 mb 0.00 in0.0 mm 0.00 in0.0 mm 0.00 in0.0 mm
08:49 AM 55.2°F12.9°C -0.1°F-17.8°C -5% Calm Calm -- 29.81 in1009.5 mb 0.00 in0.0 mm 0.00 in0.0 mm 0.00 in0.0 mm
09:19 AM 59.7°F15.4°C 59.7°F15.4°C 100% Calm Calm 0.3 mph0.5 kmh 29.81 in1009.5 mb 0.00 in0.0 mm 0.00 in0.0 mm 0.00 in0.0 mm
09:49 AM 58.8°F14.9°C 58.3°F14.6°C 98% Calm Calm 0.3 mph0.5 kmh 29.81 in1009.5 mb 0.00 in0.0 mm 0.00 in0.0 mm 0.00 in0.0 mm
10:19 AM 61.3°F16.3°C 59.7°F15.4°C 94% Calm Calm -- 29.81 in1009.5 mb 0.00 in0.0 mm 0.00 in0.0 mm 0.00 in0.0 mm
10:49 AM 61.8°F16.6°C 58.3°F14.6°C 88% 1.9 mph S3.1 kmh S 3.1 mph5.0 kmh 29.80 in1009.1 mb 0.00 in0.0 mm 0.00 in0.0 mm 0.00 in0.0 mm
11:19 AM 61.5°F16.4°C 58.9°F14.9°C 91% Calm Calm 4.6 mph7.4 kmh 29.79 in1008.8 mb 0.00 in0.0 mm 0.00 in0.0 mm 0.00 in0.0 mm
11:49 AM 64.5°F18.1°C 58.7°F14.8°C 81% 2.2 mph W3.5 kmh W 5.0 mph8.0 kmh 29.78 in1008.5 mb 0.00 in0.0 mm 0.00 in0.0 mm 0.00 in0.0 mm
12:19 PM 64.5°F18.1°C 59.4°F15.2°C 83% 1.0 mph SW1.6 kmh SW 4.6 mph7.4 kmh 29.78 in1008.5 mb 0.00 in0.0 mm 0.00 in0.0 mm 0.00 in0.0 mm
12:49 PM 68.0°F20.0°C 59.9°F15.5°C 75% 3.3 mph SSW5.3 kmh SSW 4.6 mph7.4 kmh 29.77 in1008.1 mb 0.00 in0.0 mm 0.00 in0.0 mm 0.00 in0.0 mm
01:01 PM 68.5°F20.3°C 60.1°F15.6°C 74% 1.3 mph S2.1 kmh S 5.0 mph8.0 kmh 29.77 in1008.1 mb 0.00 in0.0 mm 0.00 in0.0 mm 0.00 in0.0 mm
01:31 PM 68.7°F20.4°C 59.7°F15.4°C 73% 2.4 mph S3.9 kmh S 4.6 mph7.4 kmh 29.76 in1007.8 mb 0.00 in0.0 mm 0.00 in0.0 mm 0.00 in0.0 mm
02:24 PM 69.8°F21.0°C 60.7°F15.9°C 72% 2.6 mph W4.2 kmh W 7.1 mph11.4 kmh 29.75 in1007.5 mb 0.00 in0.0 mm 0.00 in0.0 mm 0.00 in0.0 mm
02:54 PM 70.5°F21.4°C 60.1°F15.6°C 69% 2.0 mph SSE3.2 kmh SSE 3.7 mph6.0 kmh 29.75 in1007.5 mb 0.00 in0.0 mm 0.00 in0.0 mm 0.00 in0.0 mm
03:24 PM 72.8°F22.7°C 61.9°F16.6°C 68% 2.1 mph S3.4 kmh S 4.3 mph6.9 kmh 29.74 in1007.1 mb 0.00 in0.0 mm 0.00 in0.0 mm 0.00 in0.0 mm
03:55 PM 70.8°F21.6°C 59.6°F15.3°C 67% 3.4 mph SE5.5 kmh SE 5.9 mph9.5 kmh 29.74 in1007.1 mb 0.00 in0.0 mm 0.00 in0.0 mm 0.00 in0.0 mm
04:25 PM 68.5°F20.3°C 58.4°F14.7°C 70% 0.6 mph S1.0 kmh S 3.7 mph6.0 kmh 29.73 in1006.8 mb 0.00 in0.0 mm 0.00 in0.0 mm 0.00 in0.0 mm
05:33 PM 60.9°F16.1°C 56.6°F13.7°C 85% Calm Calm -- 29.75 in1007.5 mb 0.00 in0.0 mm 0.00 in0.0 mm 0.00 in0.0 mm
06:03 PM 57.7°F14.3°C 56.3°F13.5°C 95% Calm Calm 1.8 mph2.9 kmh 29.76 in1007.8 mb 0.00 in0.0 mm 0.00 in0.0 mm 0.00 in0.0 mm
06:33 PM 57.2°F14.0°C 56.5°F13.6°C 97% Calm Calm 0.3 mph0.5 kmh 29.77 in1008.1 mb 0.00 in0.0 mm 0.00 in0.0 mm 0.00 in0.0 mm
07:03 PM 57.0°F13.9°C 56.1°F13.4°C 96% 2.0 mph W3.2 kmh W 3.4 mph5.5 kmh 29.78 in1008.5 mb 0.00 in0.0 mm 0.00 in0.0 mm 0.00 in0.0 mm
07:33 PM 56.3°F13.5°C 56.3°F13.5°C 100% 2.4 mph SW3.9 kmh SW 4.6 mph7.4 kmh 29.77 in1008.1 mb 0.00 in0.0 mm 0.00 in0.0 mm 0.00 in0.0 mm
08:03 PM 56.3°F13.5°C 56.0°F13.3°C 99% 1.3 mph W2.1 kmh W 3.1 mph5.0 kmh 29.77 in1008.1 mb 0.00 in0.0 mm 0.00 in0.0 mm 0.00 in0.0 mm
08:33 PM 53.9°F12.2°C 53.9°F12.2°C 100% Calm Calm -- 29.78 in1008.5 mb 0.00 in0.0 mm 0.00 in0.0 mm 0.00 in0.0 mm
09:03 PM 52.7°F11.5°C 52.7°F11.5°C 100% Calm Calm 2.1 mph3.4 kmh 29.80 in1009.1 mb 0.00 in0.0 mm 0.00 in0.0 mm 0.00 in0.0 mm
09:33 PM 51.9°F11.1°C 51.9°F11.1°C 100% Calm Calm -- 29.81 in1009.5 mb 0.00 in0.0 mm 0.00 in0.0 mm 0.00 in0.0 mm
10:03 PM 52.1°F11.2°C 52.1°F11.2°C 100% Calm Calm -- 29.82 in1009.8 mb 0.00 in0.0 mm 0.00 in0.0 mm 0.00 in0.0 mm
10:33 PM 53.7°F12.1°C 53.7°F12.1°C 100% Calm Calm 0.9 mph1.4 kmh 29.83 in1010.2 mb 0.00 in0.0 mm 0.00 in0.0 mm 0.00 in0.0 mm
11:03 PM 52.5°F11.4°C 52.5°F11.4°C 100% Calm Calm -- 29.84 in1010.5 mb 0.00 in0.0 mm 0.00 in0.0 mm 0.00 in0.0 mm
11:33 PM 50.3°F10.2°C 50.3°F10.2°C 100% Calm Calm -- 29.84 in1010.5 mb 0.00 in0.0 mm 0.00 in0.0 mm 0.00 in0.0 mm